Time;durP1;ratioP1;P1;durP2;ratioP2;P2;SDS_P1;SDS_P2;PMS_P1;PMS_P2;Temp;Humidity;BMP_temperature;BMP_pressure;BME280_temperature;BME280_humidity;BME280_pressure;Samples;Min_cycle;Max_cycle;Signal;HPM_P1;HPM_P2
2023/06/26 00:01:08;;;;;;;;;6.00;5.00;;;;;14.49;95.92;98454.97;4950394;28;104056;-71
2023/06/26 00:03:35;;;;;;;;;6.00;6.00;;;;;14.31;98.01;98458.53;4950198;28;102745;-71
2023/06/26 00:06:10;;;;;;;;;6.00;5.75;;;;;14.26;98.67;98467.34;4953054;28;102377;-72
2023/06/26 00:08:58;;;;;;;;;5.50;5.00;;;;;14.23;97.61;98467.78;4948525;28;102414;-71
2023/06/26 00:11:43;;;;;;;;;4.50;4.50;;;;;14.21;97.85;98464.50;4943487;28;107600;-71
2023/06/26 00:14:25;;;;;;;;;11.50;11.00;;;;;13.91;100.00;98463.59;4952429;28;102034;-72
2023/06/26 00:17:12;;;;;;;;;11.75;10.00;;;;;13.76;100.00;98447.63;4948337;28;102423;-71
2023/06/26 00:19:50;;;;;;;;;18.50;14.25;;;;;13.73;100.00;98466.28;4954917;28;102509;-72
2023/06/26 00:22:17;;;;;;;;;15.00;13.75;;;;;13.65;100.00;98458.41;4955800;28;104160;-72
2023/06/26 00:24:44;;;;;;;;;11.50;11.50;;;;;13.70;100.00;98456.69;4955927;28;102125;-71
2023/06/26 00:27:11;;;;;;;;;10.75;10.00;;;;;13.72;100.00;98465.44;4954200;28;102021;-71
2023/06/26 00:29:39;;;;;;;;;13.75;11.75;;;;;13.64;100.00;98459.47;4956136;28;102330;-71
2023/06/26 00:32:06;;;;;;;;;12.50;11.75;;;;;13.60;100.00;98463.69;4953696;28;104121;-71
2023/06/26 00:34:34;;;;;;;;;12.50;8.00;;;;;13.59;100.00;98464.75;4955040;28;101930;-72
2023/06/26 00:37:02;;;;;;;;;11.75;10.75;;;;;13.52;100.00;98453.09;4953982;28;102114;-71
2023/06/26 00:39:29;;;;;;;;;16.25;14.25;;;;;13.40;100.00;98455.72;4951366;28;102064;-71
2023/06/26 00:41:56;;;;;;;;;15.50;14.75;;;;;13.27;100.00;98462.09;4948443;28;104320;-71
2023/06/26 00:44:23;;;;;;;;;15.75;14.00;;;;;13.32;100.00;98458.72;4956035;28;102281;-71
2023/06/26 00:46:50;;;;;;;;;9.00;8.50;;;;;13.33;100.00;98454.94;4954522;28;102260;-71
2023/06/26 00:49:17;;;;;;;;;11.00;9.00;;;;;13.37;100.00;98453.47;4956675;28;102460;-71
2023/06/26 00:51:44;;;;;;;;;8.00;7.25;;;;;13.34;100.00;98453.88;4951107;28;104026;-71
2023/06/26 00:54:12;;;;;;;;;6.25;6.25;;;;;13.33;100.00;98455.78;4953599;28;102290;-71
2023/06/26 00:56:39;;;;;;;;;7.50;6.00;;;;;13.32;100.00;98459.56;4952873;28;102894;-71
2023/06/26 00:59:06;;;;;;;;;9.00;8.00;;;;;13.28;100.00;98452.09;4948416;28;104296;-71
2023/06/26 01:01:33;;;;;;;;;8.00;7.75;;;;;13.22;100.00;98448.38;4950503;28;104369;-72
2023/06/26 01:04:01;;;;;;;;;6.50;6.00;;;;;13.20;100.00;98453.16;4949493;28;103305;-71
2023/06/26 01:06:37;;;;;;;;;9.75;9.50;;;;;13.21;100.00;98454.84;4956965;28;101976;-71
2023/06/26 01:09:22;;;;;;;;;10.75;8.00;;;;;13.17;100.00;98452.78;4950516;28;102412;-71
2023/06/26 01:12:18;;;;;;;;;9.00;9.00;;;;;12.96;100.00;98443.13;4944197;28;107744;-71
2023/06/26 01:15:03;;;;;;;;;8.50;8.00;;;;;12.98;100.00;98449.97;4950170;28;102410;-71
2023/06/26 01:17:48;;;;;;;;;9.00;8.75;;;;;12.85;100.00;98441.09;4947224;28;102779;-71
2023/06/26 01:20:25;;;;;;;;;12.00;10.75;;;;;12.79;100.00;98433.81;4955282;28;102369;-71
2023/06/26 01:23:17;;;;;;;;;10.25;7.75;;;;;12.83;100.00;98443.22;4946309;28;103018;-71
2023/06/26 01:26:22;;;;;;;;;7.00;7.00;;;;;12.85;100.00;98435.66;4950942;28;102294;-72
2023/06/26 01:28:53;;;;;;;;;8.75;8.00;;;;;12.87;100.00;98442.56;4947915;28;102280;-71
2023/06/26 01:31:20;;;;;;;;;6.50;5.50;;;;;12.93;100.00;98443.53;4966876;28;102154;-71
2023/06/26 01:33:49;;;;;;;;;4.00;3.00;;;;;12.93;100.00;98433.50;4953494;28;104006;-72
2023/06/26 01:36:16;;;;;;;;;3.75;3.00;;;;;12.95;100.00;98434.13;4954450;28;102488;-71
2023/06/26 01:38:43;;;;;;;;;4.00;3.00;;;;;12.98;100.00;98430.13;4950244;28;101974;-71
2023/06/26 01:41:10;;;;;;;;;2.00;2.00;;;;;12.88;100.00;98413.50;4953504;28;102776;-71
2023/06/26 01:43:43;;;;;;;;;3.00;2.00;;;;;13.01;100.00;98437.03;4954559;28;107186;-71
2023/06/26 01:46:20;;;;;;;;;3.00;2.25;;;;;13.01;100.00;98429.72;4952664;28;102264;-72
2023/06/26 01:48:57;;;;;;;;;5.00;4.00;;;;;13.03;100.00;98433.03;4954530;28;103827;-72
2023/06/26 01:51:30;;;;;;;;;2.25;2.00;;;;;13.00;100.00;98421.78;4954033;28;102373;-71
2023/06/26 01:53:59;;;;;;;;;1.50;1.50;;;;;13.06;100.00;98429.06;4949741;28;108698;-72
2023/06/26 01:56:29;;;;;;;;;3.75;3.00;;;;;13.04;100.00;98434.69;4949434;28;102455;-71
2023/06/26 01:58:57;;;;;;;;;3.00;3.00;;;;;12.93;100.00;98411.81;4949370;28;102139;-72
2023/06/26 02:01:24;;;;;;;;;3.00;2.75;;;;;13.02;100.00;98435.94;4954111;28;102407;-71
2023/06/26 02:03:52;;;;;;;;;3.00;3.00;;;;;13.00;100.00;98427.22;4952904;28;104302;-71
2023/06/26 02:06:19;;;;;;;;;3.75;2.00;;;;;12.95;100.00;98420.56;4952536;28;102129;-71
2023/06/26 02:08:46;;;;;;;;;2.50;2.50;;;;;12.90;100.00;98417.69;4951802;28;102454;-71
2023/06/26 02:11:13;;;;;;;;;2.00;2.00;;;;;12.86;100.00;98429.19;4952451;28;102246;-71
2023/06/26 02:13:40;;;;;;;;;2.00;1.50;;;;;12.79;100.00;98429.22;4950557;28;104293;-71
2023/06/26 02:16:07;;;;;;;;;2.50;2.50;;;;;12.75;100.00;98424.44;4951296;28;102744;-71
2023/06/26 02:18:34;;;;;;;;;1.00;1.00;;;;;12.73;100.00;98426.56;4954264;28;102947;-71
2023/06/26 02:21:03;;;;;;;;;1.00;1.00;;;;;12.69;100.00;98419.94;4950005;28;102157;-71
2023/06/26 02:23:30;;;;;;;;;2.75;2.75;;;;;12.66;100.00;98407.63;4949875;28;104015;-71
2023/06/26 02:25:57;;;;;;;;;3.00;3.00;;;;;12.72;100.00;98411.34;4957332;28;102092;-71
2023/06/26 02:28:24;;;;;;;;;3.75;3.00;;;;;12.72;100.00;98416.75;4955401;28;102099;-71
2023/06/26 02:30:51;;;;;;;;;4.00;4.00;;;;;12.72;100.00;98419.47;4955657;28;102170;-71
2023/06/26 02:33:18;;;;;;;;;3.00;3.00;;;;;12.68;100.00;98421.81;4956059;28;104135;-72
2023/06/26 02:35:45;;;;;;;;;2.00;2.00;;;;;12.65;100.00;98426.84;4954477;28;102062;-71
2023/06/26 02:38:12;;;;;;;;;5.00;3.00;;;;;12.58;100.00;98418.72;4957793;28;102158;-72
2023/06/26 02:40:39;;;;;;;;;5.00;3.25;;;;;12.64;100.00;98430.59;4959051;28;102445;-71
2023/06/26 02:43:07;;;;;;;;;2.50;2.50;;;;;12.64;100.00;98436.84;4956805;28;104152;-69
2023/06/26 02:45:34;;;;;;;;;3.00;3.00;;;;;12.66;100.00;98426.59;4960229;28;102116;-71
2023/06/26 02:48:01;;;;;;;;;4.00;4.00;;;;;12.61;100.00;98415.56;4951629;28;107935;-71
2023/06/26 02:50:28;;;;;;;;;5.00;4.25;;;;;12.62;100.00;98416.41;4954404;28;102450;-72
2023/06/26 02:52:55;;;;;;;;;4.00;3.00;;;;;12.66;100.00;98426.59;4954449;28;104051;-71
2023/06/26 02:55:22;;;;;;;;;4.00;3.00;;;;;12.67;100.00;98427.44;4952525;28;103589;-71
2023/06/26 02:57:49;;;;;;;;;5.75;5.00;;;;;12.63;100.00;98431.63;4951312;28;102132;-72
2023/06/26 03:00:16;;;;;;;;;4.00;4.00;;;;;12.62;100.00;98436.22;4954803;28;106796;-71
2023/06/26 03:02:43;;;;;;;;;3.00;3.00;;;;;12.56;100.00;98428.97;4952976;28;104259;-72
2023/06/26 03:05:10;;;;;;;;;4.50;4.50;;;;;12.52;100.00;98425.84;4952760;28;102485;-72
2023/06/26 03:07:37;;;;;;;;;5.50;4.00;;;;;12.52;100.00;98438.56;4958542;28;101859;-71
2023/06/26 03:10:05;;;;;;;;;4.75;4.75;;;;;12.53;100.00;98434.81;4954796;28;102108;-71
2023/06/26 03:12:32;;;;;;;;;4.75;3.50;;;;;12.53;100.00;98432.94;4952519;28;109433;-72
2023/06/26 03:14:59;;;;;;;;;5.00;4.75;;;;;12.52;100.00;98434.00;4952056;28;102653;-71
2023/06/26 03:17:26;;;;;;;;;5.00;4.00;;;;;12.52;100.00;98434.00;4953964;28;102344;-72
2023/06/26 03:19:53;;;;;;;;;4.00;4.00;;;;;12.48;100.00;98424.63;4948620;28;102848;-72
2023/06/26 03:22:20;;;;;;;;;4.00;4.00;;;;;12.48;100.00;98423.78;4951579;28;103798;-71
2023/06/26 03:24:47;;;;;;;;;4.00;3.25;;;;;12.45;100.00;98421.53;4952311;28;103748;-71
2023/06/26 03:27:14;;;;;;;;;6.00;5.75;;;;;12.47;100.00;98422.16;4952151;28;102402;-71
2023/06/26 03:29:44;;;;;;;;;4.00;3.50;;;;;12.59;100.00;98436.69;4951203;28;102038;-72
2023/06/26 03:32:11;;;;;;;;;3.25;3.25;;;;;12.63;100.00;98442.50;4952299;28;104034;-71
2023/06/26 03:34:38;;;;;;;;;3.75;3.00;;;;;12.66;100.00;98439.34;4952837;28;103333;-71
2023/06/26 03:37:05;;;;;;;;;4.00;3.00;;;;;12.71;100.00;98434.09;4954265;28;102398;-72
2023/06/26 03:39:32;;;;;;;;;4.75;4.25;;;;;12.75;100.00;98435.31;4952378;28;102223;-71
2023/06/26 03:42:00;;;;;;;;;3.25;3.25;;;;;12.82;100.00;98439.66;4951187;28;104146;-72
2023/06/26 03:44:28;;;;;;;;;2.00;1.00;;;;;12.90;100.00;98435.84;4953889;28;103283;-71
2023/06/26 03:46:55;;;;;;;;;2.75;2.25;;;;;12.95;100.00;98436.84;4953169;28;102137;-72
2023/06/26 03:49:22;;;;;;;;;2.50;2.50;;;;;13.07;100.00;98445.09;4952335;28;102330;-71
2023/06/26 03:51:49;;;;;;;;;2.75;2.75;;;;;13.15;100.00;98444.03;4953073;28;104030;-71
2023/06/26 03:54:16;;;;;;;;;2.25;2.25;;;;;13.22;100.00;98451.06;4950200;28;102292;-71
2023/06/26 03:56:43;;;;;;;;;4.50;3.25;;;;;13.29;100.00;98451.84;4951217;28;102044;-71
2023/06/26 03:59:11;;;;;;;;;3.00;2.00;;;;;13.31;100.00;98436.16;4953811;28;102259;-71
2023/06/26 04:01:38;;;;;;;;;3.00;3.00;;;;;13.43;100.00;98438.13;4952329;28;103820;-72
2023/06/26 04:04:05;;;;;;;;;2.25;2.25;;;;;13.50;100.00;98441.63;4956723;28;102226;-72
2023/06/26 04:06:33;;;;;;;;;2.00;2.00;;;;;13.58;100.00;98444.06;4952285;28;102273;-72
2023/06/26 04:09:00;;;;;;;;;1.00;1.00;;;;;13.65;100.00;98442.09;4953056;28;102124;-71
2023/06/26 04:11:27;;;;;;;;;2.25;1.75;;;;;13.71;100.00;98438.50;4951664;28;104022;-71
2023/06/26 04:13:54;;;;;;;;;3.25;3.25;;;;;13.78;100.00;98437.34;4949469;28;102312;-71
2023/06/26 04:16:25;;;;;;;;;3.75;3.00;;;;;13.88;100.00;98447.72;4949418;28;102336;-71
2023/06/26 04:18:53;;;;;;;;;4.75;4.00;;;;;13.98;100.00;98439.03;4956829;28;102432;-71
2023/06/26 04:21:20;;;;;;;;;2.00;2.00;;;;;14.06;100.00;98439.56;4953179;28;104017;-72
2023/06/26 04:23:47;;;;;;;;;1.50;1.00;;;;;14.15;100.00;98437.34;4958170;28;102447;-71
2023/06/26 04:26:14;;;;;;;;;3.00;3.00;;;;;14.25;100.00;98427.63;4953094;28;102439;-72
2023/06/26 04:28:43;;;;;;;;;3.75;2.50;;;;;14.40;100.00;98434.59;4952366;28;102105;-72
2023/06/26 04:31:10;;;;;;;;;2.50;2.25;;;;;14.54;100.00;98425.19;4952449;28;104005;-71
2023/06/26 04:33:37;;;;;;;;;4.25;4.25;;;;;14.67;100.00;98436.72;4950974;28;102407;-71
2023/06/26 04:36:08;;;;;;;;;3.00;3.00;;;;;14.79;100.00;98427.75;4953828;28;102088;-71
2023/06/26 04:38:35;;;;;;;;;3.00;3.00;;;;;14.54;100.00;98366.16;4956203;28;102076;-72
2023/06/26 04:41:02;;;;;;;;;5.25;5.00;;;;;15.05;100.00;98425.44;4954050;28;108746;-71
2023/06/26 04:43:30;;;;;;;;;4.00;4.00;;;;;15.26;100.00;98431.41;4953622;28;103568;-71
2023/06/26 04:45:57;;;;;;;;;5.25;5.00;;;;;15.52;100.00;98425.53;4957745;28;102204;-71
2023/06/26 04:48:24;;;;;;;;;7.00;7.00;;;;;15.73;100.00;98430.38;4953568;28;102211;-71
2023/06/26 04:50:53;;;;;;;;;12.75;11.00;;;;;16.10;100.00;98424.63;4955670;28;105129;-71
2023/06/26 04:53:21;;;;;;;;;8.00;8.00;;;;;16.52;97.69;98429.59;4954264;28;102109;-72
2023/06/26 04:55:49;;;;;;;;;9.00;8.00;;;;;16.99;93.25;98428.56;4955420;28;102376;-72
2023/06/26 04:58:17;;;;;;;;;11.25;11.00;;;;;17.46;91.34;98421.72;4955359;28;103065;-72
2023/06/26 05:00:44;;;;;;;;;12.00;11.00;;;;;17.78;89.11;98427.44;4956524;28;104010;-71
2023/06/26 05:03:12;;;;;;;;;16.00;15.25;;;;;18.13;91.08;98436.13;4955503;28;102208;-72
2023/06/26 05:05:40;;;;;;;;;8.00;8.00;;;;;18.52;86.53;98427.84;4947496;28;102447;-71
2023/06/26 05:08:14;;;;;;;;;8.00;7.50;;;;;18.87;82.50;98432.91;4955793;28;103786;-71
2023/06/26 05:10:41;;;;;;;;;12.25;11.25;;;;;19.16;84.02;98428.81;4947091;28;108671;-71
2023/06/26 05:13:08;;;;;;;;;11.00;10.00;;;;;19.31;80.03;98422.66;4948863;28;102721;-72
2023/06/26 05:15:35;;;;;;;;;11.00;10.00;;;;;19.55;78.51;98433.00;4955579;28;102310;-72
2023/06/26 05:18:02;;;;;;;;;14.50;13.75;;;;;19.82;79.95;98432.09;4952190;28;102415;-71
2023/06/26 05:20:30;;;;;;;;;12.33;11.00;;;;;19.93;76.23;98439.31;4951162;28;104167;-71
2023/06/26 05:22:58;;;;;;;;;13.00;13.00;;;;;20.12;77.99;98431.47;4957166;28;103892;-72
2023/06/26 05:25:26;;;;;;;;;17.67;16.00;;;;;20.15;78.84;98423.50;4958115;28;102079;-71
2023/06/26 05:27:54;;;;;;;;;19.00;18.00;;;;;20.42;75.53;98437.94;4956284;28;102201;-72
2023/06/26 05:30:21;;;;;;;;;18.33;17.33;;;;;20.76;76.82;98429.25;4955953;28;104155;-71
2023/06/26 05:32:49;;;;;;;;;20.33;18.67;;;;;20.97;79.64;98433.72;4958592;28;102460;-71
2023/06/26 05:35:17;;;;;;;;;20.00;18.67;;;;;21.17;72.90;98433.75;4958640;28;102415;-72
2023/06/26 05:37:45;;;;;;;;;22.00;18.67;;;;;21.44;71.65;98433.50;4959064;28;101994;-72
2023/06/26 05:40:12;;;;;;;;;17.33;16.33;;;;;21.53;72.97;98431.84;4957815;28;104208;-72
2023/06/26 05:42:39;;;;;;;;;13.67;12.33;;;;;;;;4956509;28;102076;-72
2023/06/26 05:45:07;;;;;;;;;11.33;10.00;;;;;21.68;68.01;98436.53;4960172;28;102082;-71
2023/06/26 05:47:34;;;;;;;;;19.00;18.00;;;;;21.64;73.50;98432.69;4957637;28;102030;-72
2023/06/26 05:50:02;;;;;;;;;16.00;16.00;;;;;21.99;67.84;98429.06;4957012;28;104234;-71
2023/06/26 05:52:29;;;;;;;;;17.33;15.33;;;;;22.15;70.17;98425.19;4957379;28;102361;-72
2023/06/26 05:54:59;;;;;;;;;13.00;10.67;;;;;22.09;66.64;98427.13;4957083;28;102420;-72
2023/06/26 05:57:28;;;;;;;;;13.00;11.67;;;;;22.23;66.78;98428.19;4959415;28;101949;-71
2023/06/26 05:59:56;;;;;;;;;15.33;14.00;;;;;22.40;65.71;98424.25;4957854;28;104006;-72
2023/06/26 06:02:23;;;;;;;;;11.00;10.00;;;;;22.56;66.30;98428.63;4953868;28;102897;-71
2023/06/26 06:04:50;;;;;;;;;11.33;10.33;;;;;22.56;65.05;98417.59;4957320;28;102137;-71
2023/06/26 06:07:17;;;;;;;;;7.67;7.00;;;;;22.62;66.24;98421.94;4959063;28;102218;-71
2023/06/26 06:09:44;;;;;;;;;12.00;11.00;;;;;22.73;66.43;98418.09;4956797;28;104182;-71
2023/06/26 06:12:11;;;;;;;;;12.33;12.33;;;;;22.71;66.80;98422.22;4951860;28;101976;-70
2023/06/26 06:14:38;;;;;;;;;9.67;8.67;;;;;22.75;64.19;98421.34;4954890;28;102371;-69
2023/06/26 06:17:05;;;;;;;;;6.00;5.67;;;;;22.76;62.73;98414.75;4958309;28;102014;-71
2023/06/26 06:19:32;;;;;;;;;6.33;6.00;;;;;22.75;61.55;98423.28;4955021;28;104062;-71
2023/06/26 06:21:58;;;;;;;;;9.67;9.67;;;;;22.67;63.86;98422.75;4949307;28;102272;-71
2023/06/26 06:24:25;;;;;;;;;11.33;10.67;;;;;22.17;66.66;98432.06;4953004;28;101975;-71
2023/06/26 06:26:52;;;;;;;;;11.67;10.00;;;;;22.35;65.04;98427.84;4956879;28;101931;-71
2023/06/26 06:29:19;;;;;;;;;10.33;7.00;;;;;22.79;64.63;98421.59;4955559;28;103954;-71
2023/06/26 06:31:47;;;;;;;;;12.00;12.00;;;;;23.04;62.63;98425.06;4950788;28;102144;-71
2023/06/26 06:34:14;;;;;;;;;10.00;9.00;;;;;22.98;67.64;98419.84;4954715;28;102093;-70
2023/06/26 06:36:41;;;;;;;;;11.00;10.67;;;;;23.30;63.87;98416.59;4955359;28;103567;-72
2023/06/26 06:39:08;;;;;;;;;16.67;13.33;;;;;23.04;63.97;98419.53;4958009;28;104154;-72
2023/06/26 06:41:35;;;;;;;;;15.33;15.00;;;;;22.61;66.69;98431.31;4953931;28;102318;-72
2023/06/26 06:44:03;;;;;;;;;13.67;12.33;;;;;23.03;64.66;98428.91;4955622;28;102305;-72
2023/06/26 06:46:30;;;;;;;;;14.00;12.00;;;;;22.89;64.73;98414.13;4956457;28;102344;-72
2023/06/26 06:48:57;;;;;;;;;9.00;9.00;;;;;23.24;61.60;98420.47;4951905;28;104150;-73
2023/06/26 06:51:24;;;;;;;;;10.00;8.00;;;;;23.33;64.05;98421.50;4954632;28;102471;-72
2023/06/26 06:53:51;;;;;;;;;9.67;8.67;;;;;23.53;61.74;98421.41;4958068;28;102091;-72
2023/06/26 06:56:18;;;;;;;;;8.33;8.00;;;;;23.72;59.87;98425.09;4958689;28;102533;-72
2023/06/26 06:58:46;;;;;;;;;8.00;7.00;;;;;23.97;62.33;98421.25;4954342;28;106427;-71
2023/06/26 07:01:13;;;;;;;;;5.67;5.33;;;;;24.08;58.86;98421.97;4956856;28;102020;-72
2023/06/26 07:03:40;;;;;;;;;5.00;5.00;;;;;24.04;57.56;98420.91;4957492;28;102249;-70
2023/06/26 07:06:08;;;;;;;;;5.00;5.00;;;;;24.17;57.39;98429.34;4960469;28;102302;-72
2023/06/26 07:08:35;;;;;;;;;5.33;4.67;;;;;24.28;54.82;98416.22;4946462;28;104027;-72
2023/06/26 07:11:02;;;;;;;;;4.00;3.33;;;;;24.40;54.72;98417.47;4947079;28;105144;-72
2023/06/26 07:13:30;;;;;;;;;5.00;5.00;;;;;24.34;55.48;98424.19;4953937;28;102228;-72
2023/06/26 07:15:57;;;;;;;;;7.33;7.33;;;;;24.16;56.68;98424.13;4956228;28;101977;-71
2023/06/26 07:18:24;;;;;;;;;12.00;11.00;;;;;24.17;55.92;98417.47;4954682;28;104201;-71
2023/06/26 07:20:50;;;;;;;;;10.33;10.00;;;;;23.58;57.70;98421.34;4954120;28;102423;-71
2023/06/26 07:23:17;;;;;;;;;10.33;8.67;;;;;23.89;57.06;98408.91;4954307;28;102524;-71
2023/06/26 07:25:44;;;;;;;;;5.00;5.00;;;;;24.14;53.21;98413.31;4956495;28;102148;-70
2023/06/26 07:28:12;;;;;;;;;5.67;4.00;;;;;24.35;53.63;98422.25;4956484;28;104025;-71
2023/06/26 07:30:39;;;;;;;;;6.00;4.67;;;;;24.55;53.60;98416.44;4955576;28;102282;-71
2023/06/26 07:33:06;;;;;;;;;3.00;3.00;;;;;24.69;54.77;98420.13;4952183;28;102999;-71
2023/06/26 07:35:33;;;;;;;;;8.00;8.00;;;;;23.84;51.50;98417.22;4957637;28;102530;-71
2023/06/26 07:38:00;;;;;;;;;7.00;6.00;;;;;23.67;56.21;98416.84;4954729;28;104096;-71
2023/06/26 07:40:27;;;;;;;;;5.33;5.00;;;;;24.19;57.14;98423.50;4955196;28;102466;-71
2023/06/26 07:42:54;;;;;;;;;4.33;4.00;;;;;24.42;53.33;98420.75;4954430;28;101903;-71
2023/06/26 07:45:21;;;;;;;;;5.00;5.00;;;;;24.65;56.97;98421.03;4947282;28;101929;-71
2023/06/26 07:47:51;;;;;;;;;12.33;11.67;;;;;24.50;54.75;98416.50;4955187;28;104017;-71
2023/06/26 07:50:22;;;;;;;;;10.67;9.00;;;;;24.29;56.99;98398.53;4953167;28;102760;-71
2023/06/26 07:52:50;;;;;;;;;8.00;7.00;;;;;24.54;56.30;98414.00;4952833;28;102835;-71
2023/06/26 07:55:17;;;;;;;;;6.00;6.00;;;;;24.69;53.97;98400.78;4957169;28;102324;-71
2023/06/26 07:57:45;;;;;;;;;8.00;6.67;;;;;24.89;56.90;98405.25;4956956;28;104014;-70
2023/06/26 08:00:12;;;;;;;;;6.00;5.00;;;;;25.10;56.69;98405.75;4958609;28;102112;-71
2023/06/26 08:02:39;;;;;;;;;6.67;6.00;;;;;25.24;56.14;98406.63;4956035;28;102019;-71
2023/06/26 08:05:07;;;;;;;;;6.33;5.00;;;;;25.16;52.81;98396.25;4956427;28;102619;-71
2023/06/26 08:07:34;;;;;;;;;5.00;5.00;;;;;25.29;51.72;98406.56;4954415;28;103923;-71
2023/06/26 08:10:02;;;;;;;;;7.00;6.00;;;;;25.36;53.74;98409.75;4953866;28;101921;-71
2023/06/26 08:12:29;;;;;;;;;4.00;4.00;;;;;25.23;50.62;98386.44;4954869;28;102268;-71
2023/06/26 08:14:55;;;;;;;;;3.33;3.33;;;;;25.34;51.81;98412.03;4957440;28;102448;-71
2023/06/26 08:17:22;;;;;;;;;5.67;5.33;;;;;25.50;50.36;98402.31;4955621;28;105133;-71
2023/06/26 08:19:49;;;;;;;;;4.67;4.00;;;;;25.51;47.12;98406.75;4956675;28;102074;-71
2023/06/26 08:22:17;;;;;;;;;3.67;3.67;;;;;25.65;47.10;98412.34;4955398;28;101956;-70
2023/06/26 08:24:44;;;;;;;;;4.50;3.50;;;;;25.61;47.38;98406.59;4955695;28;102081;-71
2023/06/26 08:27:14;;;;;;;;;4.67;4.67;;;;;25.53;47.27;98404.47;4954556;28;104071;-70
2023/06/26 08:29:41;;;;;;;;;5.00;5.00;;;;;25.14;48.02;98402.09;4958551;28;101906;-71
2023/06/26 08:32:08;;;;;;;;;3.33;3.00;;;;;25.34;47.44;98400.94;4956899;28;101967;-71
2023/06/26 08:34:35;;;;;;;;;5.00;4.33;;;;;25.22;45.97;98403.34;4957721;28;102140;-71
2023/06/26 08:37:02;;;;;;;;;4.33;4.00;;;;;25.30;47.60;98394.38;4956134;28;104177;-71
2023/06/26 08:39:30;;;;;;;;;4.00;3.00;;;;;25.55;45.17;98398.69;4956547;28;102207;-71
2023/06/26 08:41:57;;;;;;;;;4.00;4.00;;;;;25.60;43.74;98401.38;4955337;28;101880;-71
2023/06/26 08:44:24;;;;;;;;;4.33;3.67;;;;;25.89;43.66;98401.97;4956298;28;102325;-71
2023/06/26 08:46:52;;;;;;;;;4.00;4.00;;;;;26.07;42.72;98400.25;4952733;28;104326;-71
2023/06/26 08:49:32;;;;;;;;;8.67;7.67;;;;;25.29;45.04;98389.97;4953036;28;102262;-71
2023/06/26 08:52:11;;;;;;;;;4.00;4.00;;;;;25.81;45.30;98396.28;4955747;28;102071;-71
2023/06/26 08:54:45;;;;;;;;;5.00;4.67;;;;;25.73;44.51;98397.81;4953147;28;102964;-71
2023/06/26 08:57:15;;;;;;;;;4.67;4.67;;;;;25.95;46.69;98384.09;4953313;28;108508;-71
2023/06/26 08:59:47;;;;;;;;;6.33;5.33;;;;;25.57;44.65;98397.28;4954120;28;102003;-71
2023/06/26 09:02:15;;;;;;;;;6.67;5.33;;;;;25.67;45.63;98388.75;4951170;28;102238;-70
2023/06/26 09:04:42;;;;;;;;;6.33;6.33;;;;;25.62;48.49;98397.16;4962377;28;102338;-71
2023/06/26 09:07:09;;;;;;;;;5.00;5.00;;;;;25.47;45.37;98388.28;4960164;28;108703;-71
2023/06/26 09:09:36;;;;;;;;;9.00;7.00;;;;;24.94;46.89;98393.28;4959078;28;102955;-71
2023/06/26 09:12:03;;;;;;;;;7.00;6.00;;;;;24.79;47.57;98374.94;4959171;28;102252;-71
2023/06/26 09:14:31;;;;;;;;;6.00;5.33;;;;;25.04;48.71;98393.09;4959641;28;102273;-72
2023/06/26 09:16:58;;;;;;;;;3.33;3.33;;;;;25.05;47.46;98392.00;4957692;28;104025;-71
2023/06/26 09:19:25;;;;;;;;;3.00;3.00;;;;;24.93;47.69;98388.88;4959058;28;101989;-71
2023/06/26 09:21:52;;;;;;;;;4.00;3.67;;;;;24.77;45.07;98393.75;4954979;28;102291;-71
2023/06/26 09:24:21;;;;;;;;;3.33;3.00;;;;;24.63;46.60;98396.41;4960655;28;102446;-71
2023/06/26 09:26:49;;;;;;;;;3.33;3.33;;;;;24.78;46.43;98387.94;4957020;28;104019;-71
2023/06/26 09:29:17;;;;;;;;;3.00;2.33;;;;;25.15;50.48;98383.53;4957238;28;102219;-71
2023/06/26 09:31:44;;;;;;;;;2.00;2.00;;;;;25.50;48.37;98380.19;4956101;28;102433;-71
2023/06/26 09:34:12;;;;;;;;;2.00;2.00;;;;;25.67;41.10;98386.00;4960544;28;102061;-71
2023/06/26 09:36:42;;;;;;;;;1.67;1.67;;;;;25.87;43.91;98365.41;4957594;28;108661;-71
2023/06/26 09:39:10;;;;;;;;;3.67;3.00;;;;;26.24;45.12;98385.78;4956528;28;102035;-71
2023/06/26 09:41:42;;;;;;;;;3.67;3.67;;;;;25.84;42.89;98390.13;4958387;28;102205;-71
2023/06/26 09:44:13;;;;;;;;;8.00;6.67;;;;;25.54;38.55;98377.66;4960686;28;102087;-71
2023/06/26 09:46:40;;;;;;;;;4.00;4.00;;;;;25.78;40.71;98372.78;4958598;28;108721;-71
2023/06/26 09:49:11;;;;;;;;;6.00;6.00;;;;;25.23;44.62;98380.06;4957786;28;102010;-72
2023/06/26 09:51:40;;;;;;;;;7.33;7.00;;;;;25.05;43.60;98369.84;4956783;28;102137;-72
2023/06/26 09:54:09;;;;;;;;;5.33;5.00;;;;;25.58;45.62;98373.97;4958908;28;102210;-72
2023/06/26 09:56:36;;;;;;;;;5.00;4.00;;;;;26.03;42.94;98371.47;4956330;28;104760;-72
2023/06/26 09:59:05;;;;;;;;;8.00;7.67;;;;;25.49;41.75;98363.84;4955311;28;102798;-72
2023/06/26 10:01:32;;;;;;;;;5.00;5.00;;;;;25.38;43.64;98352.16;4956369;28;102844;-72
2023/06/26 10:04:00;;;;;;;;;5.67;5.00;;;;;25.16;44.96;98365.81;4956974;28;102343;-71
2023/06/26 10:06:46;;;;;;;;;7.00;6.00;;;;;24.83;44.89;98368.50;4956909;28;103942;-71
2023/06/26 10:09:19;;;;;;;;;5.00;4.00;;;;;24.63;45.90;98357.72;4954257;28;102299;-71
2023/06/26 10:11:56;;;;;;;;;4.33;4.33;;;;;25.08;44.38;98358.22;4957429;28;101802;-71
2023/06/26 10:14:27;;;;;;;;;4.00;4.00;;;;;25.40;40.83;98365.72;4952914;28;101922;-70
2023/06/26 10:17:00;;;;;;;;;3.67;3.67;;;;;25.38;43.46;98352.16;4953379;28;104143;-71
2023/06/26 10:19:28;;;;;;;;;3.33;3.33;;;;;25.66;40.45;98361.38;4954177;28;102270;-70
2023/06/26 10:21:57;;;;;;;;;4.33;3.67;;;;;25.82;39.32;98350.81;4957193;28;102895;-73
2023/06/26 10:24:26;;;;;;;;;2.00;2.00;;;;;25.91;41.00;98354.53;4955494;28;102099;-72
2023/06/26 10:27:00;;;;;;;;;3.33;3.33;;;;;26.10;38.08;98347.78;4953727;28;104064;-73
2023/06/26 10:29:29;;;;;;;;;3.67;3.33;;;;;26.25;41.27;98338.38;4955588;28;102350;-73
2023/06/26 10:32:00;;;;;;;;;3.00;2.00;;;;;26.57;39.55;98335.41;4957353;28;102289;-74
2023/06/26 10:34:30;;;;;;;;;3.67;3.67;;;;;26.57;36.58;98323.50;4948268;28;102546;-74
2023/06/26 10:37:03;;;;;;;;;2.00;2.00;;;;;26.66;39.26;98316.09;4950753;28;103911;-72
2023/06/26 10:39:49;;;;;;;;;3.00;3.00;;;;;26.91;39.89;98323.03;4956203;28;102318;-73
2023/06/26 10:42:18;;;;;;;;;5.00;4.00;;;;;26.68;39.61;98327.69;4954276;28;102022;-72
2023/06/26 10:44:47;;;;;;;;;5.00;5.00;;;;;26.25;41.79;98327.28;4958004;28;102056;-71
2023/06/26 10:47:35;;;;;;;;;4.00;4.00;;;;;26.06;42.62;98330.13;4954357;28;104013;-71
2023/06/26 10:50:25;;;;;;;;;4.33;3.33;;;;;25.99;42.84;98331.66;4956343;28;102207;-72
2023/06/26 10:53:09;;;;;;;;;3.00;3.00;;;;;25.78;42.81;98328.47;4955506;28;102362;-72
2023/06/26 10:55:41;;;;;;;;;6.00;4.67;;;;;25.90;43.62;98328.78;4956096;28;102111;-72
2023/06/26 10:58:30;;;;;;;;;4.00;4.00;;;;;26.12;41.82;98328.06;4953980;28;103968;-72
2023/06/26 11:01:15;;;;;;;;;3.33;3.33;;;;;26.36;40.97;98323.13;4953684;28;102264;-72
2023/06/26 11:03:58;;;;;;;;;3.00;3.00;;;;;26.67;44.24;98322.44;4956374;28;102435;-72
2023/06/26 11:06:27;;;;;;;;;3.00;2.33;;;;;26.86;42.68;98323.16;4956870;28;103503;-72
2023/06/26 11:09:13;;;;;;;;;3.00;3.00;;;;;26.95;41.58;98324.03;4953366;28;104211;-71
2023/06/26 11:11:57;;;;;;;;;3.00;3.00;;;;;27.12;41.18;98312.25;4955583;28;102252;-71
2023/06/26 11:14:26;;;;;;;;;3.00;3.00;;;;;27.07;40.00;98304.84;4954763;28;101983;-70
2023/06/26 11:16:56;;;;;;;;;3.00;3.00;;;;;27.11;40.32;98305.88;4955813;28;102458;-71
2023/06/26 11:19:27;;;;;;;;;5.33;5.33;;;;;26.87;37.78;98305.38;4955557;28;104024;-71
2023/06/26 11:22:04;;;;;;;;;6.67;6.67;;;;;26.49;40.40;98294.56;4953195;28;106533;-71
2023/06/26 11:24:32;;;;;;;;;5.33;5.33;;;;;26.66;41.58;98290.31;4954083;28;102487;-71
2023/06/26 11:27:04;;;;;;;;;6.00;6.00;;;;;26.83;39.14;98304.34;4955777;28;102344;-70
2023/06/26 11:29:33;;;;;;;;;5.00;4.00;;;;;27.04;40.86;98302.72;4956589;28;104044;-71